sensor_id;sensor_type;location;lat;lon;timestamp;P1;durP1;ratioP1;P2;durP2;ratioP2
22863;SDS011;11599;49.882;8.680;2023-06-10T01:11:36;14.27;;;8.90;;
22863;SDS011;11599;49.882;8.680;2023-06-10T01:21:59;10.47;;;8.63;;
22863;SDS011;11599;49.882;8.680;2023-06-10T01:32:23;11.87;;;8.83;;
22863;SDS011;11599;49.882;8.680;2023-06-10T01:42:48;14.23;;;8.83;;
22863;SDS011;11599;49.882;8.680;2023-06-10T01:53:10;11.53;;;8.27;;
22863;SDS011;11599;49.882;8.680;2023-06-10T02:03:32;13.07;;;8.80;;
22863;SDS011;11599;49.882;8.680;2023-06-10T02:13:54;12.83;;;8.70;;
22863;SDS011;11599;49.882;8.680;2023-06-10T02:24:17;14.47;;;9.17;;
22863;SDS011;11599;49.882;8.680;2023-06-10T02:34:38;13.53;;;8.40;;
22863;SDS011;11599;49.882;8.680;2023-06-10T02:45:02;13.27;;;8.97;;
22863;SDS011;11599;49.882;8.680;2023-06-10T02:55:31;13.30;;;8.97;;
22863;SDS011;11599;49.882;8.680;2023-06-10T03:05:57;12.47;;;8.47;;
22863;SDS011;11599;49.882;8.680;2023-06-10T03:16:19;15.13;;;8.67;;
22863;SDS011;11599;49.882;8.680;2023-06-10T03:26:43;12.30;;;8.97;;
22863;SDS011;11599;49.882;8.680;2023-06-10T03:37:04;12.03;;;8.50;;
22863;SDS011;11599;49.882;8.680;2023-06-10T03:47:32;13.47;;;8.50;;
22863;SDS011;11599;49.882;8.680;2023-06-10T03:57:55;13.83;;;8.50;;
22863;SDS011;11599;49.882;8.680;2023-06-10T04:08:21;15.93;;;9.30;;
22863;SDS011;11599;49.882;8.680;2023-06-10T04:18:43;13.03;;;8.53;;
22863;SDS011;11599;49.882;8.680;2023-06-10T04:29:07;14.30;;;9.03;;
22863;SDS011;11599;49.882;8.680;2023-06-10T04:39:29;13.20;;;8.10;;
22863;SDS011;11599;49.882;8.680;2023-06-10T04:49:56;11.27;;;7.90;;
22863;SDS011;11599;49.882;8.680;2023-06-10T05:00:18;13.23;;;7.67;;
22863;SDS011;11599;49.882;8.680;2023-06-10T05:10:41;13.90;;;8.00;;
22863;SDS011;11599;49.882;8.680;2023-06-10T05:21:03;9.60;;;7.23;;
22863;SDS011;11599;49.882;8.680;2023-06-10T05:31:27;11.23;;;7.13;;
22863;SDS011;11599;49.882;8.680;2023-06-10T05:41:49;13.40;;;7.10;;
22863;SDS011;11599;49.882;8.680;2023-06-10T05:52:11;10.20;;;7.15;;
22863;SDS011;11599;49.882;8.680;2023-06-10T06:02:33;8.87;;;6.30;;
22863;SDS011;11599;49.882;8.680;2023-06-10T06:12:56;12.23;;;6.73;;
22863;SDS011;11599;49.882;8.680;2023-06-10T06:23:17;8.57;;;6.40;;
22863;SDS011;11599;49.882;8.680;2023-06-10T06:33:40;10.07;;;6.32;;
22863;SDS011;11599;49.882;8.680;2023-06-10T06:44:01;10.40;;;6.55;;
22863;SDS011;11599;49.882;8.680;2023-06-10T06:54:32;9.35;;;6.60;;
22863;SDS011;11599;49.882;8.680;2023-06-10T07:04:53;10.10;;;6.05;;
22863;SDS011;11599;49.882;8.680;2023-06-10T07:15:17;14.52;;;6.32;;
22863;SDS011;11599;49.882;8.680;2023-06-10T07:25:40;11.88;;;6.70;;
22863;SDS011;11599;49.882;8.680;2023-06-10T07:36:03;10.73;;;6.82;;
22863;SDS011;11599;49.882;8.680;2023-06-10T07:46:24;11.88;;;6.60;;
22863;SDS011;11599;49.882;8.680;2023-06-10T07:56:48;12.38;;;6.55;;
22863;SDS011;11599;49.882;8.680;2023-06-10T08:07:10;9.40;;;6.18;;
22863;SDS011;11599;49.882;8.680;2023-06-10T08:17:32;13.65;;;6.30;;
22863;SDS011;11599;49.882;8.680;2023-06-10T08:27:54;7.82;;;6.40;;
22863;SDS011;11599;49.882;8.680;2023-06-10T08:38:18;9.25;;;6.50;;
22863;SDS011;11599;49.882;8.680;2023-06-10T08:48:41;10.20;;;6.60;;
22863;SDS011;11599;49.882;8.680;2023-06-10T08:59:05;6.90;;;5.82;;
22863;SDS011;11599;49.882;8.680;2023-06-10T09:09:26;9.15;;;6.10;;
22863;SDS011;11599;49.882;8.680;2023-06-10T09:19:50;10.77;;;6.93;;
22863;SDS011;11599;49.882;8.680;2023-06-10T09:30:23;9.23;;;6.40;;
22863;SDS011;11599;49.882;8.680;2023-06-10T09:40:50;8.73;;;5.95;;
22863;SDS011;11599;49.882;8.680;2023-06-10T09:51:12;6.63;;;5.75;;
22863;SDS011;11599;49.882;8.680;2023-06-10T10:01:35;9.25;;;5.43;;
22863;SDS011;11599;49.882;8.680;2023-06-10T10:11:56;20.33;;;5.43;;
22863;SDS011;11599;49.882;8.680;2023-06-10T10:22:24;10.27;;;6.35;;
22863;SDS011;11599;49.882;8.680;2023-06-10T10:32:55;9.35;;;5.57;;
22863;SDS011;11599;49.882;8.680;2023-06-10T10:43:21;7.03;;;4.95;;
22863;SDS011;11599;49.882;8.680;2023-06-10T11:04:28;5.18;;;3.10;;
22863;SDS011;11599;49.882;8.680;2023-06-10T11:14:53;5.10;;;3.30;;
22863;SDS011;11599;49.882;8.680;2023-06-10T11:25:19;5.30;;;3.07;;
22863;SDS011;11599;49.882;8.680;2023-06-10T11:35:59;4.40;;;3.00;;
22863;SDS011;11599;49.882;8.680;2023-06-10T11:46:22;4.95;;;3.00;;
22863;SDS011;11599;49.882;8.680;2023-06-10T11:56:43;4.60;;;3.42;;
22863;SDS011;11599;49.882;8.680;2023-06-10T12:07:06;4.43;;;3.13;;
22863;SDS011;11599;49.882;8.680;2023-06-10T12:17:36;6.30;;;3.20;;
22863;SDS011;11599;49.882;8.680;2023-06-10T12:28:01;3.70;;;3.30;;
22863;SDS011;11599;49.882;8.680;2023-06-10T12:38:23;3.67;;;3.30;;
22863;SDS011;11599;49.882;8.680;2023-06-10T12:48:51;4.22;;;3.33;;
22863;SDS011;11599;49.882;8.680;2023-06-10T12:59:14;5.45;;;3.38;;
22863;SDS011;11599;49.882;8.680;2023-06-10T13:09:37;5.90;;;4.10;;
22863;SDS011;11599;49.882;8.680;2023-06-10T13:20:01;4.23;;;3.83;;
22863;SDS011;11599;49.882;8.680;2023-06-10T13:30:26;7.45;;;4.00;;
22863;SDS011;11599;49.882;8.680;2023-06-10T13:40:48;4.93;;;3.80;;
22863;SDS011;11599;49.882;8.680;2023-06-10T13:51:12;4.97;;;3.80;;
22863;SDS011;11599;49.882;8.680;2023-06-10T14:01:33;3.80;;;3.40;;
22863;SDS011;11599;49.882;8.680;2023-06-10T14:11:56;8.10;;;3.70;;
22863;SDS011;11599;49.882;8.680;2023-06-10T14:22:18;6.28;;;3.90;;
22863;SDS011;11599;49.882;8.680;2023-06-10T14:32:41;6.32;;;3.90;;
22863;SDS011;11599;49.882;8.680;2023-06-10T14:43:02;6.30;;;3.70;;
22863;SDS011;11599;49.882;8.680;2023-06-10T14:53:32;6.23;;;3.60;;
22863;SDS011;11599;49.882;8.680;2023-06-10T15:03:57;4.90;;;3.70;;
22863;SDS011;11599;49.882;8.680;2023-06-10T15:14:23;5.70;;;3.57;;
22863;SDS011;11599;49.882;8.680;2023-06-10T15:24:46;4.13;;;3.72;;
22863;SDS011;11599;49.882;8.680;2023-06-10T15:35:09;7.65;;;3.50;;
22863;SDS011;11599;49.882;8.680;2023-06-10T15:45:32;5.40;;;3.57;;
22863;SDS011;11599;49.882;8.680;2023-06-10T15:55:55;4.65;;;3.92;;
22863;SDS011;11599;49.882;8.680;2023-06-10T16:06:16;6.13;;;3.40;;
22863;SDS011;11599;49.882;8.680;2023-06-10T16:16:40;5.43;;;3.80;;
22863;SDS011;11599;49.882;8.680;2023-06-10T16:27:02;5.53;;;3.50;;
22863;SDS011;11599;49.882;8.680;2023-06-10T16:37:28;4.07;;;2.97;;
22863;SDS011;11599;49.882;8.680;2023-06-10T16:47:49;4.40;;;3.00;;
22863;SDS011;11599;49.882;8.680;2023-06-10T16:58:12;4.93;;;2.90;;
22863;SDS011;11599;49.882;8.680;2023-06-10T17:08:33;5.53;;;3.00;;
22863;SDS011;11599;49.882;8.680;2023-06-10T17:18:56;8.27;;;3.38;;
22863;SDS011;11599;49.882;8.680;2023-06-10T17:29:18;6.10;;;2.87;;
22863;SDS011;11599;49.882;8.680;2023-06-10T17:39:40;3.50;;;3.20;;
22863;SDS011;11599;49.882;8.680;2023-06-10T17:50:02;5.13;;;3.70;;
22863;SDS011;11599;49.882;8.680;2023-06-10T18:00:25;6.67;;;3.53;;
22863;SDS011;11599;49.882;8.680;2023-06-10T18:10:46;4.40;;;3.30;;
22863;SDS011;11599;49.882;8.680;2023-06-10T18:21:10;6.20;;;4.40;;
22863;SDS011;11599;49.882;8.680;2023-06-10T18:31:31;11.13;;;4.60;;
22863;SDS011;11599;49.882;8.680;2023-06-10T18:41:54;5.85;;;4.50;;
22863;SDS011;11599;49.882;8.680;2023-06-10T18:52:15;5.85;;;4.50;;
22863;SDS011;11599;49.882;8.680;2023-06-10T19:02:39;6.75;;;4.85;;
22863;SDS011;11599;49.882;8.680;2023-06-10T19:13:01;5.65;;;4.60;;
22863;SDS011;11599;49.882;8.680;2023-06-10T19:23:23;9.18;;;4.57;;
22863;SDS011;11599;49.882;8.680;2023-06-10T19:33:45;10.45;;;5.40;;
22863;SDS011;11599;49.882;8.680;2023-06-10T19:44:07;13.40;;;6.13;;
22863;SDS011;11599;49.882;8.680;2023-06-10T19:54:29;7.70;;;5.80;;
22863;SDS011;11599;49.882;8.680;2023-06-10T20:04:52;6.78;;;5.13;;
22863;SDS011;11599;49.882;8.680;2023-06-10T20:15:13;8.85;;;5.35;;
22863;SDS011;11599;49.882;8.680;2023-06-10T20:25:36;9.65;;;6.93;;
22863;SDS011;11599;49.882;8.680;2023-06-10T21:38:11;9.80;;;6.40;;
22863;SDS011;11599;49.882;8.680;2023-06-10T21:48:33;8.80;;;6.30;;
